Time;durP1;ratioP1;P1;durP2;ratioP2;P2;SDS_P1;SDS_P2;PMS_P1;PMS_P2;Temp;Humidity;BMP_temperature;BMP_pressure;BME280_temperature;BME280_humidity;BME280_pressure;Samples;Min_cycle;Max_cycle;Signal;HPM_P1;HPM_P2
2022/04/04 00:01:30;;;;;;;7.53;4.30;;;4.60;99.90;;;;;;5031683;28;20441;-72
2022/04/04 00:03:57;;;;;;;6.90;2.00;;;4.70;99.90;;;;;;5025600;28;21027;-73
2022/04/04 00:06:28;;;;;;;6.27;2.63;;;4.70;99.90;;;;;;5030808;28;20446;-72
2022/04/04 00:08:54;;;;;;;3.43;2.77;;;4.70;99.90;;;;;;5027201;28;21020;-72
2022/04/04 00:11:21;;;;;;;6.90;3.73;;;4.60;99.90;;;;;;5024197;28;20909;-73
2022/04/04 00:13:47;;;;;;;5.73;3.80;;;4.60;99.90;;;;;;5024347;28;20442;-72
2022/04/04 00:16:14;;;;;;;5.00;2.40;;;4.50;99.90;;;;;;5025617;28;20508;-71
2022/04/04 00:18:41;;;;;;;2.93;2.67;;;4.60;99.90;;;;;;5021843;28;20460;-72
2022/04/04 00:21:08;;;;;;;3.00;2.17;;;4.60;99.90;;;;;;5025308;28;20522;-71
2022/04/04 00:23:36;;;;;;;4.27;2.00;;;4.50;99.90;;;;;;5027658;28;20458;-72
2022/04/04 00:26:05;;;;;;;4.00;2.73;;;4.50;99.90;;;;;;5025244;28;20922;-73
2022/04/04 00:28:31;;;;;;;2.20;2.00;;;4.40;99.90;;;;;;5025469;28;20544;-72
2022/04/04 00:30:58;;;;;;;2.70;2.23;;;4.50;99.90;;;;;;5023608;28;21252;-71
2022/04/04 00:33:25;;;;;;;4.10;2.27;;;4.40;99.90;;;;;;5020818;28;20494;-72
2022/04/04 00:35:52;;;;;;;2.27;2.17;;;4.40;99.90;;;;;;5009406;28;20464;-73
2022/04/04 00:38:18;;;;;;;3.30;2.50;;;4.40;99.90;;;;;;5023453;28;20458;-72
2022/04/04 00:40:46;;;;;;;6.20;2.47;;;4.30;99.90;;;;;;5017475;28;20459;-72
2022/04/04 00:43:13;;;;;;;2.83;2.33;;;4.30;99.90;;;;;;5018065;28;20523;-70
2022/04/04 00:45:45;;;;;;;1.63;1.40;;;4.40;99.90;;;;;;5021827;28;20481;-72
2022/04/04 00:48:12;;;;;;;5.00;3.03;;;4.30;99.90;;;;;;5025153;28;20442;-70
2022/04/04 00:50:39;;;;;;;1.90;1.63;;;4.30;99.90;;;;;;5026814;28;21369;-70
2022/04/04 00:53:09;;;;;;;3.27;2.80;;;4.20;99.90;;;;;;5024834;28;21394;-73
2022/04/04 00:55:36;;;;;;;2.63;2.27;;;4.20;99.90;;;;;;5027530;28;20826;-71
2022/04/04 00:58:05;;;;;;;3.83;2.83;;;4.30;99.90;;;;;;5019059;28;20999;-72
2022/04/04 01:00:32;;;;;;;3.40;3.10;;;4.20;99.90;;;;;;5019513;28;20579;-71
2022/04/04 01:02:59;;;;;;;4.03;2.70;;;4.30;99.90;;;;;;5023564;28;20510;-73
2022/04/04 01:05:26;;;;;;;5.40;2.10;;;4.30;99.90;;;;;;5030804;28;20582;-70
2022/04/04 01:07:53;;;;;;;5.93;3.37;;;4.30;99.90;;;;;;5034161;28;20504;-72
2022/04/04 01:10:19;;;;;;;3.30;2.90;;;4.30;99.90;;;;;;5032801;28;20534;-72
2022/04/04 01:12:53;;;;;;;3.30;3.00;;;4.20;99.90;;;;;;5027748;28;20455;-71
2022/04/04 01:15:25;;;;;;;3.10;2.10;;;4.20;99.90;;;;;;5035317;28;20434;-71
2022/04/04 01:17:52;;;;;;;3.73;2.80;;;4.20;99.90;;;;;;5032548;28;20451;-72
2022/04/04 01:20:19;;;;;;;3.70;3.23;;;4.20;99.90;;;;;;5039072;28;21085;-71
2022/04/04 01:22:49;;;;;;;2.93;1.80;;;4.20;99.90;;;;;;5032394;28;20785;-72
2022/04/04 01:25:23;;;;;;;3.70;3.00;;;4.10;99.90;;;;;;5032024;28;20504;-72
2022/04/04 01:27:50;;;;;;;5.03;3.67;;;4.10;99.90;;;;;;5025948;28;20429;-71
2022/04/04 01:30:17;;;;;;;21.17;5.00;;;4.10;99.90;;;;;;5029000;28;22675;-72
2022/04/04 01:32:44;;;;;;;5.97;3.43;;;4.10;99.90;;;;;;5028226;28;20438;-74
2022/04/04 01:35:11;;;;;;;6.30;2.90;;;4.00;99.90;;;;;;5034171;28;20510;-70
2022/04/04 01:37:38;;;;;;;2.17;1.87;;;4.00;99.90;;;;;;5038080;28;20434;-72
2022/04/04 01:40:07;;;;;;;4.07;3.50;;;4.00;99.90;;;;;;5030114;28;20498;-72
2022/04/04 01:42:35;;;;;;;3.20;2.90;;;4.00;99.90;;;;;;5031194;28;20476;-71
2022/04/04 01:45:02;;;;;;;3.73;3.30;;;4.00;99.90;;;;;;5037995;28;20461;-71
2022/04/04 01:47:29;;;;;;;4.00;3.43;;;4.10;99.90;;;;;;5033853;28;20904;-71
2022/04/04 01:49:55;;;;;;;2.20;2.00;;;4.10;99.90;;;;;;5032794;28;20458;-71
2022/04/04 01:52:22;;;;;;;3.00;2.70;;;4.00;99.90;;;;;;5037283;28;20463;-72
2022/04/04 01:54:49;;;;;;;2.43;2.23;;;4.00;99.90;;;;;;5041730;28;20527;-71
2022/04/04 01:57:15;;;;;;;3.27;2.97;;;4.00;99.90;;;;;;5029807;28;21154;-71
2022/04/04 01:59:43;;;;;;;3.07;2.50;;;4.00;99.90;;;;;;5031068;28;20483;-70
2022/04/04 02:02:11;;;;;;;9.03;4.90;;;4.00;99.90;;;;;;5032512;28;20437;-70
2022/04/04 02:04:38;;;;;;;3.80;2.57;;;3.90;99.90;;;;;;5028969;28;20454;-71
2022/04/04 02:07:06;;;;;;;4.73;2.50;;;3.90;99.90;;;;;;5030112;28;20526;-72
2022/04/04 02:09:32;;;;;;;3.90;2.90;;;3.90;99.90;;;;;;5032409;28;20449;-72
2022/04/04 02:11:59;;;;;;;2.67;2.10;;;3.90;99.90;;;;;;5023487;28;20556;-72
2022/04/04 02:14:26;;;;;;;4.30;3.40;;;3.90;99.90;;;;;;5024374;28;20456;-71
2022/04/04 02:16:54;;;;;;;7.17;3.90;;;3.90;99.90;;;;;;5032798;28;20451;-70
2022/04/04 02:19:21;;;;;;;8.83;2.30;;;3.90;99.90;;;;;;5028110;28;20502;-72
2022/04/04 02:21:48;;;;;;;5.47;3.60;;;3.90;99.90;;;;;;5026413;28;20467;-73
2022/04/04 02:24:14;;;;;;;3.90;3.43;;;3.80;99.90;;;;;;5023568;28;20446;-71
2022/04/04 02:26:41;;;;;;;5.10;4.60;;;3.90;99.90;;;;;;5025695;28;21362;-69
2022/04/04 02:29:07;;;;;;;5.20;4.00;;;3.80;99.90;;;;;;5030764;28;20522;-73
2022/04/04 02:31:34;;;;;;;3.20;2.90;;;3.80;99.90;;;;;;5026614;28;20522;-70
2022/04/04 02:34:03;;;;;;;4.23;2.70;;;3.90;99.90;;;;;;5023293;28;20570;-71
2022/04/04 02:36:29;;;;;;;3.70;3.03;;;3.90;99.90;;;;;;5028622;28;20463;-71
2022/04/04 02:38:56;;;;;;;5.60;3.20;;;3.80;99.90;;;;;;5024804;28;20515;-72
2022/04/04 02:41:22;;;;;;;3.13;2.83;;;3.80;99.90;;;;;;5027365;28;21266;-70
2022/04/04 02:43:49;;;;;;;2.30;2.10;;;3.90;99.90;;;;;;5027488;28;20442;-72
2022/04/04 02:46:16;;;;;;;8.17;2.37;;;3.80;99.90;;;;;;5026714;28;20479;-71
2022/04/04 02:48:42;;;;;;;4.40;2.77;;;3.70;99.90;;;;;;5025620;28;20473;-71
2022/04/04 02:51:11;;;;;;;4.33;3.30;;;3.80;99.90;;;;;;5028334;28;20467;-71
2022/04/04 02:53:37;;;;;;;18.23;3.20;;;3.80;99.90;;;;;;5029705;28;20980;-71
2022/04/04 02:58:49;;;;;;;4.60;3.13;;;3.80;99.90;;;;;;5024226;28;20488;-71
2022/04/04 03:01:16;;;;;;;8.57;3.10;;;3.90;99.90;;;;;;5018355;28;20433;-72
2022/04/04 03:03:42;;;;;;;3.87;2.60;;;3.90;99.90;;;;;;5029377;28;20874;-70
2022/04/04 03:06:10;;;;;;;5.73;4.33;;;3.90;99.90;;;;;;5032839;28;20457;-71
2022/04/04 03:08:37;;;;;;;16.60;4.13;;;3.90;99.90;;;;;;5034837;28;20464;-71
2022/04/04 03:11:04;;;;;;;6.30;2.70;;;3.90;99.90;;;;;;5033316;28;20839;-72
2022/04/04 03:13:31;;;;;;;3.03;2.23;;;3.90;99.90;;;;;;5034167;28;20465;-72
2022/04/04 03:15:57;;;;;;;3.33;2.43;;;3.90;99.90;;;;;;5032257;28;20480;-71
2022/04/04 03:18:25;;;;;;;3.00;2.13;;;3.90;99.90;;;;;;5027992;28;21187;-72
2022/04/04 03:20:52;;;;;;;3.33;2.47;;;4.00;99.90;;;;;;5036533;28;20514;-72
2022/04/04 03:23:20;;;;;;;5.80;4.37;;;3.90;99.90;;;;;;5031202;28;20985;-72
2022/04/04 03:25:47;;;;;;;4.33;2.77;;;3.90;99.90;;;;;;5027778;28;20989;-72
2022/04/04 03:28:14;;;;;;;3.97;2.30;;;4.00;99.90;;;;;;5023126;28;20504;-72
2022/04/04 03:30:40;;;;;;;4.40;2.77;;;4.10;99.90;;;;;;5025286;28;20450;-72
2022/04/04 03:33:07;;;;;;;5.93;2.70;;;4.10;99.90;;;;;;5026117;28;20431;-72
2022/04/04 03:35:34;;;;;;;3.20;2.53;;;4.00;99.90;;;;;;5031929;28;20504;-72
2022/04/04 03:38:03;;;;;;;3.23;2.40;;;4.00;99.90;;;;;;5026683;28;20456;-71
2022/04/04 03:40:31;;;;;;;2.70;2.17;;;4.00;99.90;;;;;;5017457;28;20547;-72
2022/04/04 03:42:59;;;;;;;3.60;2.37;;;4.00;99.90;;;;;;5032000;28;20485;-71
2022/04/04 03:45:27;;;;;;;3.17;2.83;;;4.00;99.90;;;;;;5024048;28;20484;-72
2022/04/04 03:47:54;;;;;;;2.80;2.03;;;4.10;99.90;;;;;;5025389;28;21261;-72
2022/04/04 03:50:21;;;;;;;3.27;1.70;;;4.00;99.90;;;;;;5030843;28;20454;-72
2022/04/04 03:52:51;;;;;;;5.00;2.70;;;4.00;99.90;;;;;;5031559;28;20530;-72
2022/04/04 03:55:19;;;;;;;2.33;1.83;;;3.90;99.90;;;;;;5028813;28;20455;-73
2022/04/04 03:57:48;;;;;;;3.80;2.17;;;4.00;99.90;;;;;;5028140;28;20442;-72
2022/04/04 04:00:16;;;;;;;4.30;3.27;;;4.00;99.90;;;;;;5036389;28;20463;-73
2022/04/04 04:02:43;;;;;;;5.47;3.80;;;4.00;99.90;;;;;;5031408;28;20442;-72
2022/04/04 04:05:10;;;;;;;7.40;3.17;;;4.10;99.90;;;;;;5030056;28;20450;-72
2022/04/04 04:07:37;;;;;;;6.57;3.90;;;4.00;99.90;;;;;;5034705;28;20488;-69
2022/04/04 04:10:05;;;;;;;2.93;2.70;;;4.00;99.90;;;;;;5030812;28;20482;-72
2022/04/04 04:12:32;;;;;;;4.80;3.73;;;4.00;99.90;;;;;;5033775;28;20460;-71
2022/04/04 04:15:00;;;;;;;2.83;2.13;;;4.00;99.90;;;;;;5036975;28;20456;-71
2022/04/04 04:17:27;;;;;;;2.33;1.43;;;4.00;99.90;;;;;;5029078;28;20490;-71
2022/04/04 04:22:38;;;;;;;5.97;3.30;;;4.20;99.90;;;;;;5028638;28;20876;-73
2022/04/04 04:25:06;;;;;;;3.87;2.80;;;4.20;99.90;;;;;;5031789;28;20609;-72
2022/04/04 04:27:33;;;;;;;1.50;1.40;;;4.20;99.90;;;;;;5034420;28;20430;-72
2022/04/04 04:30:01;;;;;;;1.90;1.40;;;4.10;99.90;;;;;;5030081;28;20504;-70
2022/04/04 04:32:28;;;;;;;1.70;1.23;;;4.20;99.90;;;;;;5038281;28;20455;-72
2022/04/04 04:34:55;;;;;;;5.00;2.40;;;4.10;99.90;;;;;;5029900;28;20434;-72
2022/04/04 04:37:22;;;;;;;2.97;1.43;;;4.10;99.90;;;;;;5028981;28;20528;-72
2022/04/04 04:39:49;;;;;;;4.00;2.03;;;4.20;99.90;;;;;;5027478;28;20957;-71
2022/04/04 04:42:16;;;;;;;5.20;3.80;;;4.10;99.90;;;;;;5034302;28;20533;-72
2022/04/04 04:44:43;;;;;;;4.10;2.50;;;4.10;99.90;;;;;;5027216;28;20446;-72
2022/04/04 04:47:11;;;;;;;1.73;1.57;;;4.10;99.90;;;;;;5026153;28;20475;-72
2022/04/04 04:49:38;;;;;;;5.20;3.23;;;4.20;99.90;;;;;;5031792;28;20453;-72
2022/04/04 04:52:05;;;;;;;26.93;6.20;;;4.10;99.90;;;;;;5031112;28;20459;-73
2022/04/04 04:54:33;;;;;;;10.80;5.37;;;4.10;99.90;;;;;;5026442;28;20939;-71
2022/04/04 04:56:59;;;;;;;7.53;4.70;;;4.20;99.90;;;;;;5035384;28;20887;-70
2022/04/04 04:59:26;;;;;;;16.20;6.73;;;4.20;99.90;;;;;;5034077;28;20515;-70
2022/04/04 05:01:53;;;;;;;4.77;3.47;;;4.20;99.90;;;;;;5030137;28;20434;-71
2022/04/04 05:04:21;;;;;;;3.87;3.43;;;4.20;99.90;;;;;;5034651;28;20461;-72
2022/04/04 05:06:49;;;;;;;5.20;4.67;;;4.20;99.90;;;;;;5037196;28;20459;-71
2022/04/04 05:09:16;;;;;;;2.00;1.20;;;4.30;99.90;;;;;;5035312;28;20485;-71
2022/04/04 05:11:43;;;;;;;2.40;1.80;;;4.20;99.90;;;;;;5042213;28;20463;-71
2022/04/04 05:14:15;;;;;;;3.30;3.00;;;4.10;99.90;;;;;;5032025;28;20459;-72
2022/04/04 05:16:43;;;;;;;5.97;3.83;;;4.10;99.90;;;;;;5031934;28;20469;-71
2022/04/04 05:19:11;;;;;;;6.03;4.00;;;4.10;99.90;;;;;;5030679;28;20483;-71
2022/04/04 05:21:39;;;;;;;3.63;2.87;;;4.10;99.90;;;;;;5027962;28;20508;-71
2022/04/04 05:24:07;;;;;;;3.70;2.40;;;4.20;99.90;;;;;;5035398;28;20936;-72
2022/04/04 05:26:34;;;;;;;2.17;1.97;;;4.10;99.90;;;;;;5038184;28;20544;-69
2022/04/04 05:29:01;;;;;;;2.80;2.53;;;4.00;99.90;;;;;;5033598;28;20498;-71
2022/04/04 05:31:27;;;;;;;3.50;3.20;;;3.90;99.90;;;;;;5034703;28;20459;-72
2022/04/04 05:33:55;;;;;;;2.90;2.17;;;4.00;99.90;;;;;;5040028;28;21095;-72
2022/04/04 05:36:21;;;;;;;8.30;2.27;;;4.00;99.90;;;;;;5032308;28;20532;-72
2022/04/04 05:38:50;;;;;;;2.70;2.50;;;4.10;99.90;;;;;;5038157;28;21073;-72
2022/04/04 05:41:17;;;;;;;10.83;5.10;;;4.20;99.90;;;;;;5041364;28;20498;-72
2022/04/04 05:43:44;;;;;;;3.10;2.37;;;4.10;99.90;;;;;;5028582;28;20838;-73
2022/04/04 05:46:11;;;;;;;4.43;2.97;;;4.20;99.90;;;;;;5026605;28;20988;-71
2022/04/04 05:48:38;;;;;;;3.60;2.60;;;4.20;99.90;;;;;;5036719;28;20441;-72
2022/04/04 05:51:05;;;;;;;2.90;2.60;;;4.10;99.90;;;;;;5035015;28;20982;-72
2022/04/04 05:53:32;;;;;;;3.80;2.77;;;4.20;99.90;;;;;;5029060;28;20468;-72
2022/04/04 05:56:00;;;;;;;7.27;3.00;;;4.40;99.90;;;;;;5029719;28;20915;-73
2022/04/04 05:58:26;;;;;;;3.77;2.67;;;4.40;99.90;;;;;;5034200;28;20484;-72
2022/04/04 06:00:53;;;;;;;6.60;4.03;;;4.50;99.90;;;;;;5035400;28;20483;-72
2022/04/04 06:03:20;;;;;;;2.47;1.90;;;4.50;99.90;;;;;;5026993;28;20478;-73
2022/04/04 06:05:49;;;;;;;5.33;3.33;;;4.40;99.90;;;;;;5034155;28;20882;-73
2022/04/04 06:08:16;;;;;;;3.57;3.27;;;4.50;99.90;;;;;;5036847;28;20498;-71
2022/04/04 06:10:45;;;;;;;2.70;2.50;;;4.60;99.90;;;;;;5032765;28;20509;-72
2022/04/04 06:13:13;;;;;;;2.60;1.77;;;4.50;99.90;;;;;;5037134;28;20536;-71
2022/04/04 06:15:40;;;;;;;4.07;3.57;;;4.60;99.90;;;;;;5032907;28;20482;-71
2022/04/04 06:18:06;;;;;;;1.43;1.17;;;4.80;99.90;;;;;;5033648;28;20962;-72
2022/04/04 06:20:33;;;;;;;1.97;1.43;;;4.70;99.90;;;;;;5023748;28;20516;-72
2022/04/04 06:23:00;;;;;;;8.03;4.00;;;4.70;99.90;;;;;;5031752;28;20485;-72
2022/04/04 06:25:26;;;;;;;7.67;2.93;;;4.80;99.90;;;;;;5038529;28;20997;-71
2022/04/04 06:27:53;;;;;;;6.53;2.70;;;5.00;99.90;;;;;;5031383;28;20802;-70
2022/04/04 06:30:22;;;;;;;3.07;2.33;;;5.10;99.90;;;;;;5033336;28;20858;-69
2022/04/04 06:32:49;;;;;;;5.63;2.83;;;5.20;99.90;;;;;;5033728;28;20458;-71
2022/04/04 06:35:16;;;;;;;6.97;3.53;;;5.30;99.90;;;;;;5035657;28;20492;-72
2022/04/04 06:37:43;;;;;;;4.53;3.57;;;5.30;99.90;;;;;;5032285;28;20484;-72
2022/04/04 06:40:12;;;;;;;12.33;3.80;;;5.40;99.90;;;;;;5033083;28;20574;-72
2022/04/04 06:42:40;;;;;;;2.27;2.07;;;5.40;99.90;;;;;;5042230;28;20430;-71
2022/04/04 06:45:09;;;;;;;2.63;2.43;;;5.30;99.90;;;;;;5045090;28;20463;-70
2022/04/04 06:47:38;;;;;;;3.53;2.27;;;5.40;99.90;;;;;;5034969;28;20943;-71
2022/04/04 06:50:06;;;;;;;2.47;1.93;;;5.50;99.90;;;;;;5039104;28;20489;-73
2022/04/04 06:52:33;;;;;;;2.77;2.10;;;5.60;99.90;;;;;;5033446;28;20432;-71
2022/04/04 06:55:01;;;;;;;5.33;4.13;;;5.80;99.90;;;;;;5036110;28;20512;-72
2022/04/04 06:57:28;;;;;;;7.83;3.43;;;6.00;99.90;;;;;;5043534;28;20444;-73
2022/04/04 06:59:55;;;;;;;4.23;3.80;;;6.00;99.90;;;;;;5030984;28;20487;-72
2022/04/04 07:02:22;;;;;;;3.07;2.83;;;5.90;99.90;;;;;;5030643;28;21095;-72
2022/04/04 07:04:50;;;;;;;3.60;2.57;;;5.80;99.90;;;;;;5033098;28;20477;-72
2022/04/04 07:07:17;;;;;;;3.23;2.67;;;5.80;99.90;;;;;;5035414;28;20525;-73
2022/04/04 07:09:44;;;;;;;6.83;3.07;;;5.80;99.90;;;;;;5035520;28;20463;-73
2022/04/04 07:12:11;;;;;;;2.40;2.20;;;5.90;99.90;;;;;;5040223;28;20441;-72
2022/04/04 07:14:38;;;;;;;5.10;3.27;;;6.00;99.90;;;;;;5036413;28;20964;-72
2022/04/04 07:17:06;;;;;;;8.07;4.07;;;6.30;99.90;;;;;;5036088;28;20437;-70
2022/04/04 07:19:33;;;;;;;3.70;3.10;;;6.50;99.90;;;;;;5026133;28;20518;-71
2022/04/04 07:22:01;;;;;;;1.97;1.87;;;6.60;99.90;;;;;;5047046;22;20494;-71
2022/04/04 07:24:29;;;;;;;5.17;3.17;;;7.00;99.90;;;;;;5040626;28;20459;-70
2022/04/04 07:26:56;;;;;;;8.27;4.63;;;6.80;99.90;;;;;;5041602;28;20973;-69
2022/04/04 07:29:25;;;;;;;4.90;3.73;;;6.60;99.90;;;;;;5028587;28;20438;-71
2022/04/04 07:31:53;;;;;;;2.27;1.70;;;6.50;99.90;;;;;;5037924;28;20489;-71
2022/04/04 07:34:20;;;;;;;5.33;1.23;;;6.50;99.90;;;;;;5030617;28;20467;-70
2022/04/04 07:36:47;;;;;;;3.63;2.73;;;6.50;99.90;;;;;;5035409;28;20562;-72
2022/04/04 07:39:15;;;;;;;2.20;2.00;;;6.60;99.90;;;;;;5026985;28;20434;-70
2022/04/04 07:41:41;;;;;;;3.10;2.47;;;6.80;99.90;;;;;;5034925;28;20854;-70
2022/04/04 07:44:11;;;;;;;3.10;2.80;;;6.90;99.90;;;;;;5029424;28;21147;-69
2022/04/04 07:46:38;;;;;;;5.67;3.20;;;6.90;99.90;;;;;;5035471;28;20480;-70
2022/04/04 07:49:04;;;;;;;5.67;3.50;;;7.20;99.90;;;;;;5041463;28;20453;-71
2022/04/04 07:51:31;;;;;;;5.90;3.10;;;7.50;99.90;;;;;;5035666;28;20494;-69
2022/04/04 07:53:58;;;;;;;6.83;3.53;;;7.70;99.90;;;;;;5035890;28;20934;-70
2022/04/04 07:56:26;;;;;;;9.20;2.73;;;7.90;99.90;;;;;;5029847;28;20438;-70
2022/04/04 07:58:53;;;;;;;4.60;4.20;;;8.00;99.90;;;;;;5040185;28;20436;-71
2022/04/04 08:01:20;;;;;;;5.20;2.90;;;8.00;99.90;;;;;;5034078;28;20452;-70
2022/04/04 08:03:47;;;;;;;8.83;3.07;;;8.10;99.90;;;;;;5042047;28;20524;-71
2022/04/04 08:06:14;;;;;;;4.37;3.10;;;8.20;99.90;;;;;;5032380;28;20479;-71
2022/04/04 08:08:40;;;;;;;5.10;2.07;;;8.10;99.90;;;;;;5027884;28;20463;-70
2022/04/04 08:11:09;;;;;;;3.60;2.50;;;8.00;99.90;;;;;;5032624;28;20454;-70
2022/04/04 08:13:38;;;;;;;2.13;1.93;;;7.80;99.90;;;;;;5021240;28;21139;-70
2022/04/04 08:16:05;;;;;;;4.53;2.43;;;7.80;99.90;;;;;;5038897;28;21167;-68
2022/04/04 08:18:31;;;;;;;2.10;1.90;;;7.60;99.90;;;;;;5037922;28;20927;-69
2022/04/04 08:20:58;;;;;;;3.70;2.47;;;7.50;99.90;;;;;;5028126;28;20733;-70
2022/04/04 08:23:29;;;;;;;4.00;3.37;;;7.40;99.90;;;;;;5032728;28;20502;-70
2022/04/04 08:25:56;;;;;;;5.00;2.27;;;7.40;99.90;;;;;;5038105;28;20449;-69
2022/04/04 08:28:23;;;;;;;6.83;3.50;;;7.40;99.90;;;;;;5041719;28;20458;-70
2022/04/04 08:30:52;;;;;;;9.00;7.50;;;7.60;99.90;;;;;;5036448;28;21074;-71
2022/04/04 08:33:18;;;;;;;3.87;2.83;;;7.60;99.90;;;;;;5047555;28;20459;-69
2022/04/04 08:35:46;;;;;;;4.87;3.23;;;7.70;99.90;;;;;;5036055;28;20868;-70
2022/04/04 08:38:12;;;;;;;4.20;3.43;;;7.60;99.90;;;;;;5046362;28;20475;-70
2022/04/04 08:40:39;;;;;;;4.43;2.83;;;7.80;99.90;;;;;;5037184;28;20454;-70
2022/04/04 08:43:11;;;;;;;2.60;2.33;;;8.00;99.90;;;;;;5037527;28;20452;-70
2022/04/04 08:45:40;;;;;;;8.60;5.03;;;7.80;99.90;;;;;;5040121;28;20467;-71
2022/04/04 08:48:09;;;;;;;2.63;2.43;;;7.50;99.90;;;;;;5028924;28;20450;-70
2022/04/04 08:50:37;;;;;;;11.90;4.93;;;7.50;99.90;;;;;;5026967;28;20458;-71
2022/04/04 08:53:05;;;;;;;5.17;4.67;;;7.70;99.90;;;;;;5034693;28;20460;-71
2022/04/04 08:55:32;;;;;;;6.63;2.33;;;7.50;99.90;;;;;;5037574;28;20467;-71
2022/04/04 08:57:59;;;;;;;7.57;3.20;;;7.50;99.90;;;;;;5033293;28;21704;-70
2022/04/04 09:00:26;;;;;;;6.73;2.83;;;7.50;99.90;;;;;;5030769;28;20514;-71
2022/04/04 09:03:02;;;;;;;4.20;3.47;;;7.30;99.90;;;;;;5023864;28;20589;-70
2022/04/04 09:05:33;;;;;;;4.10;2.77;;;7.50;99.90;;;;;;5029701;28;20517;-70
2022/04/04 09:08:01;;;;;;;5.20;3.60;;;7.40;99.90;;;;;;5038671;28;21009;-68
2022/04/04 09:10:36;;;;;;;4.37;2.87;;;7.10;99.90;;;;;;5033549;28;20874;-70
2022/04/04 09:13:08;;;;;;;5.47;4.17;;;7.10;99.90;;;;;;5040668;28;21820;-69
2022/04/04 09:15:59;;;;;;;5.47;4.43;;;7.00;99.90;;;;;;5035052;28;20532;-71
2022/04/04 09:18:46;;;;;;;6.50;2.40;;;6.90;99.90;;;;;;5035558;28;20454;-70
2022/04/04 09:21:31;;;;;;;4.10;2.60;;;6.80;99.90;;;;;;5039872;28;20470;-71
2022/04/04 09:24:01;;;;;;;4.27;3.97;;;7.00;99.90;;;;;;5033986;28;20438;-69
2022/04/04 09:26:30;;;;;;;3.77;3.20;;;7.30;99.90;;;;;;5040516;28;20927;-70
2022/04/04 09:29:02;;;;;;;5.60;4.50;;;7.40;99.90;;;;;;5029929;28;20520;-68
2022/04/04 09:31:29;;;;;;;3.07;2.77;;;7.10;99.90;;;;;;5032361;28;20501;-71
2022/04/04 09:34:01;;;;;;;2.33;1.83;;;7.00;99.90;;;;;;5033638;28;20948;-70
2022/04/04 09:36:29;;;;;;;3.63;2.10;;;6.90;99.90;;;;;;5042706;28;20436;-71
2022/04/04 09:39:03;;;;;;;5.20;3.50;;;6.90;99.90;;;;;;5035398;28;20513;-71
2022/04/04 09:41:30;;;;;;;4.33;2.80;;;6.70;99.90;;;;;;5028433;28;20483;-70
2022/04/04 09:44:00;;;;;;;2.20;1.70;;;6.70;99.90;;;;;;5032516;28;20438;-71
2022/04/04 09:46:33;;;;;;;7.03;3.10;;;6.90;99.90;;;;;;5031302;28;20437;-70
2022/04/04 09:49:09;;;;;;;3.53;2.67;;;6.90;99.90;;;;;;5030958;28;20526;-71
2022/04/04 09:51:39;;;;;;;4.80;2.50;;;7.00;99.90;;;;;;5034141;28;20486;-71
2022/04/04 09:54:07;;;;;;;3.70;2.63;;;6.90;99.90;;;;;;5036018;28;20445;-70
2022/04/04 09:56:34;;;;;;;4.50;3.50;;;6.90;99.90;;;;;;5031533;28;20467;-71
2022/04/04 09:59:01;;;;;;;2.67;2.40;;;6.80;99.90;;;;;;5039880;28;20491;-70
2022/04/04 10:01:30;;;;;;;5.90;3.10;;;6.80;99.90;;;;;;5038157;28;20495;-70
2022/04/04 10:03:58;;;;;;;5.60;3.90;;;6.70;99.90;;;;;;5030498;28;20517;-70
2022/04/04 10:06:28;;;;;;;4.30;3.40;;;6.60;99.90;;;;;;5030836;28;20934;-69
2022/04/04 10:08:58;;;;;;;5.53;4.10;;;6.50;99.90;;;;;;5035463;28;20490;-69
2022/04/04 10:11:26;;;;;;;9.70;4.20;;;6.60;99.90;;;;;;5028288;28;20492;-70
2022/04/04 10:13:53;;;;;;;5.00;4.17;;;6.90;99.90;;;;;;5025329;28;20442;-70
2022/04/04 10:16:23;;;;;;;6.60;6.10;;;7.00;99.90;;;;;;5036919;28;20456;-70
2022/04/04 10:18:54;;;;;;;7.33;3.20;;;6.90;99.90;;;;;;5035745;28;20433;-69
2022/04/04 10:21:20;;;;;;;4.27;3.87;;;6.60;99.90;;;;;;5030263;28;21027;-69
2022/04/04 10:23:50;;;;;;;9.93;3.33;;;6.70;99.90;;;;;;5025322;28;20441;-69
2022/04/04 10:26:20;;;;;;;9.73;2.70;;;6.80;99.90;;;;;;5033119;28;21078;-70
2022/04/04 10:28:49;;;;;;;3.50;3.27;;;7.00;99.90;;;;;;5031986;28;20464;-69
2022/04/04 10:31:17;;;;;;;3.17;2.57;;;7.20;99.90;;;;;;5033521;28;20463;-70
2022/04/04 10:33:45;;;;;;;4.73;4.03;;;7.00;99.90;;;;;;5043791;28;20484;-70
2022/04/04 10:36:15;;;;;;;5.03;4.60;;;7.00;99.90;;;;;;5033169;28;20566;-71
2022/04/04 10:38:48;;;;;;;5.67;3.50;;;6.80;99.90;;;;;;5034082;28;20635;-71
2022/04/04 10:41:18;;;;;;;7.80;4.87;;;6.70;99.90;;;;;;5040158;28;20483;-71
2022/04/04 10:43:47;;;;;;;4.87;3.90;;;6.60;99.90;;;;;;5033753;28;20474;-68
2022/04/04 10:46:15;;;;;;;6.57;3.30;;;6.40;99.90;;;;;;5031432;28;20491;-70
2022/04/04 10:48:48;;;;;;;5.50;5.03;;;6.20;99.90;;;;;;5028790;28;20525;-68
2022/04/04 10:51:17;;;;;;;6.27;4.70;;;6.00;99.90;;;;;;5040212;28;20462;-70
2022/04/04 10:53:48;;;;;;;4.13;3.53;;;5.90;99.90;;;;;;5032529;28;20589;-69
2022/04/04 10:56:21;;;;;;;9.00;6.20;;;6.00;99.90;;;;;;5035695;28;20473;-68
2022/04/04 10:58:51;;;;;;;3.90;3.30;;;6.00;99.90;;;;;;5035936;28;20474;-70
2022/04/04 11:01:21;;;;;;;4.17;3.67;;;5.90;99.90;;;;;;5041610;28;20459;-69
2022/04/04 11:04:00;;;;;;;2.77;2.57;;;5.80;99.90;;;;;;5029665;28;20624;-68
2022/04/04 11:09:32;;;;;;;4.90;3.73;;;5.70;99.90;;;;;;5030005;28;20454;-70
2022/04/04 11:12:13;;;;;;;5.60;4.03;;;5.90;99.90;;;;;;5023396;28;20522;-68
2022/04/04 11:14:54;;;;;;;7.20;6.13;;;5.80;99.90;;;;;;5022750;28;20458;-69
2022/04/04 11:17:33;;;;;;;9.50;4.90;;;5.70;99.90;;;;;;5034271;28;20931;-70
2022/04/04 11:20:04;;;;;;;9.93;4.80;;;5.70;99.90;;;;;;5038534;28;20449;-70
2022/04/04 11:22:35;;;;;;;10.67;5.67;;;5.70;99.90;;;;;;5035978;28;20948;-69
2022/04/04 11:25:05;;;;;;;4.80;3.57;;;5.70;99.90;;;;;;5040631;28;20467;-70
2022/04/04 11:27:34;;;;;;;6.23;5.43;;;5.70;99.90;;;;;;5038370;28;20491;-68
2022/04/04 11:30:05;;;;;;;7.33;4.90;;;5.70;99.90;;;;;;5034470;28;20529;-70
2022/04/04 11:32:34;;;;;;;4.27;3.87;;;5.90;99.90;;;;;;5029876;28;20434;-69
2022/04/04 11:35:07;;;;;;;5.73;5.10;;;5.80;99.90;;;;;;5029525;28;20435;-68
2022/04/04 11:37:41;;;;;;;18.17;4.80;;;5.90;99.90;;;;;;5025536;28;20430;-70
2022/04/04 11:40:13;;;;;;;5.33;3.70;;;6.00;99.90;;;;;;5036560;28;20461;-69
2022/04/04 11:42:42;;;;;;;6.60;5.70;;;5.90;99.90;;;;;;5030055;28;20463;-70
2022/04/04 11:45:11;;;;;;;5.47;4.57;;;5.70;99.90;;;;;;5020050;28;20468;-69
2022/04/04 11:47:39;;;;;;;4.50;3.43;;;5.70;99.90;;;;;;5019465;28;20605;-70
2022/04/04 11:50:08;;;;;;;8.07;5.83;;;5.70;99.90;;;;;;5039409;28;20474;-70
2022/04/04 11:52:46;;;;;;;8.53;6.17;;;5.70;99.90;;;;;;5035012;28;20517;-70
2022/04/04 11:55:16;;;;;;;8.10;4.93;;;5.80;99.90;;;;;;5029508;28;20431;-70
2022/04/04 11:57:46;;;;;;;4.53;4.10;;;5.70;99.90;;;;;;5038789;28;20543;-70
2022/04/04 12:00:20;;;;;;;3.77;3.37;;;5.70;99.90;;;;;;5036216;28;20560;-70
2022/04/04 12:02:48;;;;;;;4.37;2.40;;;5.50;99.90;;;;;;5025916;28;21703;-71
2022/04/04 12:05:16;;;;;;;6.80;3.77;;;5.60;99.90;;;;;;5035478;28;20851;-69
2022/04/04 12:07:44;;;;;;;9.23;6.43;;;5.60;99.90;;;;;;5027513;28;20479;-69
2022/04/04 12:10:11;;;;;;;8.33;7.40;;;5.60;99.90;;;;;;5040996;28;20580;-69
2022/04/04 12:12:38;;;;;;;5.50;4.40;;;5.60;99.90;;;;;;5030540;28;20519;-68
2022/04/04 12:15:06;;;;;;;5.67;5.20;;;5.60;99.90;;;;;;5034083;28;20561;-69
2022/04/04 12:17:34;;;;;;;11.60;4.40;;;5.70;99.90;;;;;;5039725;28;20776;-69
2022/04/04 12:20:01;;;;;;;7.73;5.53;;;5.60;99.90;;;;;;5028353;28;20485;-71
2022/04/04 12:25:18;;;;;;;4.00;3.33;;;5.50;99.90;;;;;;5033612;28;20450;-70
2022/04/04 12:27:57;;;;;;;4.50;3.60;;;5.30;99.90;;;;;;5030971;28;20468;-69
2022/04/04 12:30:30;;;;;;;5.80;4.90;;;5.30;99.90;;;;;;5027495;28;20476;-69
2022/04/04 12:33:12;;;;;;;5.73;4.27;;;5.40;99.90;;;;;;5020948;28;20438;-70
2022/04/04 12:35:43;;;;;;;5.60;3.67;;;5.50;99.90;;;;;;5022402;28;20482;-69
2022/04/04 12:38:11;;;;;;;6.60;4.87;;;5.40;99.90;;;;;;5028901;28;20439;-70
2022/04/04 12:40:39;;;;;;;4.43;3.40;;;5.50;99.90;;;;;;5031824;28;21405;-69
2022/04/04 12:43:08;;;;;;;2.93;2.63;;;5.40;99.90;;;;;;5026191;28;20447;-69
2022/04/04 12:45:45;;;;;;;4.60;3.87;;;5.40;99.90;;;;;;5032211;28;20483;-69
2022/04/04 12:48:14;;;;;;;6.40;4.60;;;5.40;99.90;;;;;;5025454;28;20464;-70
2022/04/04 12:50:43;;;;;;;5.93;2.97;;;5.30;99.90;;;;;;5030794;28;20504;-71
2022/04/04 12:53:12;;;;;;;5.93;4.20;;;5.40;99.90;;;;;;5023346;28;20456;-68
2022/04/04 12:55:40;;;;;;;3.70;3.40;;;5.30;99.90;;;;;;5030171;28;21404;-68
2022/04/04 12:58:18;;;;;;;4.40;3.50;;;5.30;99.90;;;;;;5028293;28;21000;-70
2022/04/04 13:00:46;;;;;;;5.73;4.30;;;5.20;99.90;;;;;;5036150;28;20697;-69
2022/04/04 13:03:26;;;;;;;3.57;3.23;;;5.20;99.90;;;;;;5031509;28;20438;-69
2022/04/04 13:05:55;;;;;;;5.93;3.97;;;5.10;99.90;;;;;;5026430;28;20464;-71
2022/04/04 13:08:23;;;;;;;3.97;3.20;;;5.20;99.90;;;;;;5029870;28;20454;-69
2022/04/04 13:11:04;;;;;;;8.00;6.40;;;5.20;99.90;;;;;;5032860;28;21470;-70
2022/04/04 13:13:31;;;;;;;7.20;4.23;;;5.20;99.90;;;;;;5040576;28;20446;-70
2022/04/04 13:15:58;;;;;;;5.80;3.20;;;5.30;99.90;;;;;;5034860;28;20462;-69